VJT85 KORD-KATL
Flight info
| Callsign | VJT85 |
|---|---|
| Flight time | N/A |
| Altitude | 40000 |
| Route | CMSKY CARYN CYBIL PXV HITMN NEWBB IHAVE MTHEW CHPPR1 |
| Aircraft | CL60/M-SADE3FGHIJ3J4J7P2RWXY/HB1D1 |
Departure
| Time | 2026-05-03 21:45 |
|---|---|
| Airport | Chicago O'Hare International Airport (KORD) |
Arrival
| Time | N/A |
|---|---|
| Airport | Hartsfield Jackson Atlanta International Airport (KATL) |
| Time | Latitude | Longitude | Altitude | Speed | Heading |
|---|---|---|---|---|---|
| 2026-05-03 21:34 | 41.96060 | -87.91994 | 667 ft | 0 kts | 359° |
| 2026-05-03 21:34 | 41.96058 | -87.91994 | 667 ft | 0 kts | 359° |
| 2026-05-03 21:36 | 41.96060 | -87.91994 | 667 ft | 1 kts | 348° |
| 2026-05-03 21:36 | 41.96076 | -87.92014 | 668 ft | 4 kts | 313° |
| 2026-05-03 21:36 | 41.96105 | -87.92057 | 668 ft | 7 kts | 310° |
| 2026-05-03 21:36 | 41.96159 | -87.92086 | 668 ft | 11 kts | 0° |
| 2026-05-03 21:37 | 41.96255 | -87.92086 | 669 ft | 15 kts | 359° |
| 2026-05-03 21:37 | 41.96375 | -87.92098 | 669 ft | 19 kts | 2° |
| 2026-05-03 21:37 | 41.96521 | -87.92088 | 670 ft | 22 kts | 358° |
| 2026-05-03 21:37 | 41.96688 | -87.92088 | 671 ft | 25 kts | 1° |
| 2026-05-03 21:38 | 41.96874 | -87.92089 | 671 ft | 28 kts | 0° |
| 2026-05-03 21:38 | 41.97003 | -87.92078 | 671 ft | 16 kts | 27° |
| 2026-05-03 21:38 | 41.97036 | -87.91936 | 670 ft | 17 kts | 91° |
| 2026-05-03 21:38 | 41.97039 | -87.91761 | 670 ft | 19 kts | 88° |
| 2026-05-03 21:39 | 41.97039 | -87.91567 | 669 ft | 21 kts | 90° |
| 2026-05-03 21:39 | 41.97038 | -87.91356 | 669 ft | 23 kts | 89° |
| 2026-05-03 21:39 | 41.97041 | -87.91127 | 668 ft | 25 kts | 93° |
| 2026-05-03 21:39 | 41.97039 | -87.90878 | 667 ft | 27 kts | 90° |
| 2026-05-03 21:40 | 41.97042 | -87.90607 | 666 ft | 30 kts | 93° |
| 2026-05-03 21:40 | 41.97039 | -87.90368 | 663 ft | 9 kts | 90° |
| 2026-05-03 21:40 | 41.97042 | -87.90251 | 662 ft | 14 kts | 88° |
| 2026-05-03 21:40 | 41.97047 | -87.90099 | 661 ft | 18 kts | 89° |
| 2026-05-03 21:41 | 41.97040 | -87.89918 | 658 ft | 20 kts | 95° |
| 2026-05-03 21:41 | 41.97042 | -87.89711 | 656 ft | 23 kts | 89° |
| 2026-05-03 21:41 | 41.97049 | -87.89485 | 654 ft | 25 kts | 90° |
| 2026-05-03 21:41 | 41.97044 | -87.89242 | 654 ft | 26 kts | 91° |
| 2026-05-03 21:42 | 41.97045 | -87.88984 | 654 ft | 27 kts | 96° |
| 2026-05-03 21:42 | 41.97045 | -87.88721 | 654 ft | 28 kts | 81° |
| 2026-05-03 21:42 | 41.97037 | -87.88456 | 654 ft | 18 kts | 91° |
| 2026-05-03 21:42 | 41.97039 | -87.88272 | 654 ft | 20 kts | 85° |
| 2026-05-03 21:43 | 41.97043 | -87.88125 | 653 ft | 0 kts | 90° |
| 2026-05-03 21:43 | 41.97043 | -87.88094 | 653 ft | 6 kts | 94° |
| 2026-05-03 21:43 | 41.97015 | -87.88039 | 653 ft | 7 kts | 153° |
| 2026-05-03 21:43 | 41.96962 | -87.88028 | 653 ft | 8 kts | 192° |
| 2026-05-03 21:44 | 41.96928 | -87.88056 | 654 ft | 0 kts | 221° |
| 2026-05-03 21:44 | 41.96816 | -87.88189 | 654 ft | 69 kts | 221° |
| 2026-05-03 21:44 | 41.96214 | -87.88896 | 766 ft | 146 kts | 220° |
| 2026-05-03 21:45 | 41.95554 | -87.89712 | 1443 ft | 163 kts | 223° |
| 2026-05-03 21:45 | 41.94714 | -87.90723 | 2542 ft | 172 kts | 221° |
| 2026-05-03 21:45 | 41.93753 | -87.91818 | 3470 ft | 198 kts | 221° |
| 2026-05-03 21:45 | 41.92629 | -87.92995 | 4459 ft | 208 kts | 220° |
| 2026-05-03 21:46 | 41.91462 | -87.94142 | 5289 ft | 218 kts | 219° |
| 2026-05-03 21:46 | 41.90187 | -87.95379 | 5460 ft | 237 kts | 219° |
| 2026-05-03 21:46 | 41.88740 | -87.96546 | 5373 ft | 246 kts | 202° |
| 2026-05-03 21:46 | 41.86984 | -87.96632 | 5364 ft | 262 kts | 171° |
| 2026-05-03 21:47 | 41.85280 | -87.95760 | 5927 ft | 262 kts | 163° |
| 2026-05-03 21:47 | 41.83583 | -87.94772 | 6627 ft | 272 kts | 163° |
| 2026-05-03 21:47 | 41.81819 | -87.93762 | 7359 ft | 280 kts | 163° |
| 2026-05-03 21:47 | 41.79996 | -87.92764 | 8112 ft | 287 kts | 163° |
| 2026-05-03 21:48 | 41.78139 | -87.91788 | 8868 ft | 293 kts | 162° |
| 2026-05-03 21:48 | 41.76222 | -87.90835 | 9582 ft | 302 kts | 163° |
| 2026-05-03 21:48 | 41.74194 | -87.89864 | 9912 ft | 310 kts | 163° |
| 2026-05-03 21:48 | 41.72159 | -87.88886 | 10030 ft | 308 kts | 163° |
| 2026-05-03 21:49 | 41.70192 | -87.87974 | 10716 ft | 299 kts | 169° |
| 2026-05-03 21:49 | 41.68137 | -87.87741 | 11468 ft | 303 kts | 185° |
| 2026-05-03 21:49 | 41.66011 | -87.87762 | 12277 ft | 310 kts | 185° |
| 2026-05-03 21:49 | 41.63836 | -87.87766 | 13112 ft | 315 kts | 185° |
| 2026-05-03 21:50 | 41.61634 | -87.87768 | 13973 ft | 319 kts | 185° |
| 2026-05-03 21:50 | 41.59440 | -87.87768 | 14834 ft | 323 kts | 185° |
| 2026-05-03 21:50 | 41.57159 | -87.87766 | 15732 ft | 328 kts | 186° |
| 2026-05-03 21:50 | 41.54892 | -87.87764 | 16690 ft | 334 kts | 186° |
| 2026-05-03 21:51 | 41.52562 | -87.87760 | 17696 ft | 338 kts | 186° |
| 2026-05-03 21:51 | 41.50211 | -87.87754 | 18700 ft | 341 kts | 186° |
| 2026-05-03 21:51 | 41.47811 | -87.87749 | 19602 ft | 347 kts | 186° |
| 2026-05-03 21:51 | 41.45394 | -87.87743 | 20475 ft | 351 kts | 186° |
| 2026-05-03 21:52 | 41.42953 | -87.87736 | 21329 ft | 355 kts | 186° |
| 2026-05-03 21:52 | 41.40453 | -87.87808 | 22200 ft | 357 kts | 191° |
| 2026-05-03 21:52 | 41.37941 | -87.88042 | 22999 ft | 363 kts | 191° |
| 2026-05-03 21:52 | 41.35433 | -87.88282 | 23866 ft | 367 kts | 191° |
| 2026-05-03 21:53 | 41.32875 | -87.88525 | 24668 ft | 373 kts | 192° |
| 2026-05-03 21:53 | 41.30284 | -87.88769 | 25481 ft | 376 kts | 192° |
| 2026-05-03 21:53 | 41.27672 | -87.89015 | 26212 ft | 380 kts | 192° |
| 2026-05-03 21:53 | 41.25002 | -87.89232 | 26877 ft | 388 kts | 189° |
| 2026-05-03 21:54 | 41.22281 | -87.89199 | 27507 ft | 396 kts | 187° |
| 2026-05-03 21:54 | 41.19526 | -87.89114 | 28095 ft | 401 kts | 187° |
| 2026-05-03 21:54 | 41.16730 | -87.89030 | 28729 ft | 404 kts | 188° |
| 2026-05-03 21:54 | 41.13874 | -87.88944 | 29324 ft | 408 kts | 188° |
| 2026-05-03 21:55 | 41.11038 | -87.88860 | 29833 ft | 414 kts | 188° |
| 2026-05-03 21:55 | 41.08143 | -87.88772 | 30445 ft | 416 kts | 188° |
| 2026-05-03 21:55 | 41.05235 | -87.88684 | 30919 ft | 421 kts | 189° |
| 2026-05-03 21:55 | 41.02300 | -87.88596 | 31389 ft | 424 kts | 188° |
| 2026-05-03 21:56 | 40.99353 | -87.88506 | 31866 ft | 426 kts | 188° |
| 2026-05-03 21:56 | 40.96407 | -87.88418 | 32255 ft | 430 kts | 189° |
| 2026-05-03 21:56 | 40.93406 | -87.88328 | 32624 ft | 435 kts | 189° |
| 2026-05-03 21:56 | 40.90345 | -87.88236 | 33002 ft | 438 kts | 189° |
| 2026-05-03 21:57 | 40.87268 | -87.88143 | 33381 ft | 441 kts | 189° |
| 2026-05-03 21:57 | 40.84211 | -87.88050 | 33781 ft | 442 kts | 188° |